Terminal Aerodrome Forecast
Issued by NWS Austin/San Antonio, TX

Home | Current Version | Previous Version | Text Only | Print | Product List | Glossary On
Versions: 1 2 3 4 5 6 7 8 9 10 11 12 13 14 15 16 17 18 19 20 21 22 23 24 25
000
FTUS44 KEWX 310104 AAA
TAFSAT
TAF AMD
KSAT 310104Z 3101/0106 15010KT P6SM FEW060 SCT250
      TEMPO 3101/3102 14012G22KT
     FM311000 17005KT P6SM SCT008 BKN012
     FM311500 17010KT P6SM SCT030
     FM312000 14012KT P6SM SCT250=

USA.gov is the U.S. government's official web portal to all federal, state and local government web resources and services.